x

Western Caribbean - 195 Nm Wsw Of Negril Jamiaca (42057) Wave Buoy

5:50 - Thu 24th Jul 2014 All times are UTC.

  • Sig Wave height 4.9ft
  • Swell Direction
  • Peak Period 9s
  • Average Period 5s
  • Wind
    18mph, 20mph gusts
  • Sea Temp 83°f
  • Aire Temp 83°f
  • Sea Pressure 1014.2mb

More Historic Weather Station data

Upgrade to MSW Pro to gain access to the past 30 days of data for over 8000 Wavebouys and Weather Stations around the globe.

Join Pro

Comparision Forecast

View Surf forecast
   
jue 07/24 5:50 5ft 9s 5s 18 20 mph 1014.2mb 83f 83f
4:50 5ft 9s 5s 18 20 mph 1014.7mb 83f 83f
3:50 5ft 9s 5s 16 20 mph 1015.2mb 83f 83f
2:50 4.5ft 7s 5s 16 18 mph 1014.9mb 83f 83f
1:50 4.5ft 7s 5s 16 20 mph 1014.4mb 83f 83f
12:50 4.5ft 7s 5s 16 18 mph 1014.2mb 83f 83f
mié 07/23 11:50 5ft 6s 5s 13 16 mph 1013.9mb 83f 83f
10:50 5.5ft 9s 6s 16 18 mph 1013.4mb 83f 83f
9:50 6ft 7s 6s 13 16 mph 1013.3mb 83f 83f
8:50 7ft 9s 6s 16 18 mph 1013.3mb 83f 83f
7:50 6ft 10s 6s 18 20 mph 1014.1mb 83f 83f
6:50 6ft 9s 6s 18 20 mph 1014.6mb 83f 83f
5:50 5.5ft 7s 5s 16 20 mph 1015mb 83f 83f
4:50 5ft 9s 6s 18 22 mph 1015.3mb 83f 83f
3:50 5ft 10s 5s 18 20 mph 1015.5mb 83f 83f
2:50 5.5ft 10s 6s 16 20 mph 1015.4mb 83f 83f
1:50 5.5ft 10s 6s 18 22 mph 1015.2mb 83f 83f
12:50 5ft 10s 6s 18 20 mph 1015.1mb 83f 83f
11:50 5ft 10s 6s 18 20 mph 1015mb 83f 83f
10:50 5ft 10s 6s 16 20 mph 1014.4mb 83f 83f
9:50 4.5ft 11s 6s 16 18 mph 1014.4mb 83f 83f
8:50 4.5ft 10s 6s 13 16 mph 1014mb 83f 83f
7:50 4.5ft 9s 6s 13 16 mph 1014mb 83f 83f
6:50 4.5ft 10s 6s 13 16 mph 1014.1mb 83f 83f
5:50 5ft 8s 6s 13 16 mph 1014.8mb 83f 83f
4:50 5ft 7s 6s 16 18 mph 1015.3mb 83f 83f
3:50 5.5ft 9s 6s 16 18 mph 1015.8mb 83f 83f
2:50 5.5ft 8s 6s 16 20 mph 1015.9mb 83f 83f
1:50 6ft 9s 6s 16 20 mph 1015.6mb 83f 83f
12:50 7ft 9s 6s 16 18 mph 1014.9mb 83f 83f
mar 07/22 11:50 7ft 8s 6s 16 20 mph 1014.3mb 83f 83f
10:50 8ft 8s 6s 18 20 mph 1013.6mb 83f 83f
9:50 8ft 7s 6s 18 22 mph 1013.3mb 83f 84f
8:50 7ft 7s 6s 18 22 mph 1013.5mb 83f 83f
7:50 7.5ft 7s 6s 18 22 mph 1013.6mb 83f 83f
6:50 7ft 9s 6s 20 22 mph 1014.2mb 83f 84f
5:50 7ft 7s 6s 22 27 mph 1014.7mb 83f 84f
4:50 6.5ft 8s 5s 22 25 mph 1015.1mb 83f 83f
3:50 6.5ft 8s 5s 22 27 mph 1015.4mb 83f 84f
2:50 6.5ft 9s 5s 20 25 mph 1015.1mb 83f 83f
1:50 6ft 7s 6s 22 27 mph 1015.1mb 83f 83f
12:50 6.5ft 9s 5s 22 36 mph 1014.5mb 83f 83f
11:50 6ft 8s 6s 20 25 mph 1014mb 83f 83f
10:50 6ft 9s 6s 20 25 mph 1013.4mb 83f 83f
9:50 6.5ft 9s 6s 16 20 mph 1013.1mb 83f 82f
8:50 7ft 9s 6s 22 36 mph 1012.9mb 83f 81f
7:50 7ft 9s 6s 18 22 mph 1013.1mb 83f 83f
6:50 6ft 7s 6s 18 20 mph 1013.7mb 83f 83f
5:50 6ft 7s 6s 18 20 mph 1014.6mb 83f 83f
4:50 5ft 9s 5s 18 20 mph 1015.1mb 83f 83f
3:50 5ft 9s 5s 18 20 mph 1015.1mb 83f 83f
2:50 5ft 9s 6s 18 20 mph 1015.2mb 83f 83f
1:50 5ft 8s 5s 18 20 mph 1014.9mb 83f 83f
12:50 4.5ft 8s 5s 18 20 mph 1014.5mb 83f 83f
lun 07/21 8:50 5ft 8s 5s 18 20 mph 1013.4mb 83f 83f
7:50 5ft 8s 6s 18 20 mph 1013.6mb 83f 83f
6:50 5ft 9s 6s 16 20 mph 1014.1mb 83f 83f
5:50 5ft 9s 6s 16 18 mph 1014.4mb 83f 83f
4:50 5ft 9s 5s 16 18 mph 1014.9mb 83f 83f
3:50 5ft 9s 5s 16 20 mph 1015.1mb 83f 83f
2:50 4.5ft 9s 5s 18 20 mph 1015mb 83f 83f
1:50 5ft 9s 5s 18 20 mph 1014.8mb 83f 83f
12:50 4.5ft 9s 5s 20 25 mph 1014.9mb 83f 83f
11:50 4.5ft 9s 5s 18 20 mph 1014.9mb 83f 83f
10:50 5ft 8s 5s 18 22 mph 1014.4mb 83f 83f
9:50 5ft 8s 5s 18 20 mph 1014mb 83f 83f
8:50 5ft 8s 5s 16 18 mph 1014mb 83f 83f
7:50 5ft 8s 5s 16 18 mph 1014.2mb 83f 83f
6:50 5ft 8s 6s 16 20 mph 1014.6mb 83f 83f
5:50 4.5ft 7s 5s 13 18 mph 1015.3mb 83f 83f
4:50 5ft 8s 6s 13 16 mph 1015.7mb 83f 83f
3:50 5ft 7s 6s 13 16 mph 1015.6mb 83f 83f
2:50 5ft 8s 6s 13 16 mph 1015.4mb 83f 83f
1:50 5ft 8s 5s 13 16 mph 1014.7mb 83f 83f
12:50 5ft 9s 5s 16 18 mph 1014.1mb 83f 83f
dom 07/20 11:50 5ft 5s 5s 16 18 mph 1013.2mb 83f 83f
10:50 4.5ft 6s 5s 18 20 mph 1012.6mb 83f 83f
9:50 4.5ft 9s 5s 16 18 mph 1012.7mb 83f 83f
8:50 4.5ft 9s 5s 13 18 mph 1013.1mb 83f 83f
7:50 4.5ft 8s 5s 16 20 mph 1013.2mb 83f 83f
6:50 4.5ft 9s 5s 18 20 mph 1013.9mb 83f 83f
5:50 4.5ft 8s 5s 16 20 mph 1014.6mb 83f 83f
4:50 4ft 8s 5s 18 20 mph 1015.1mb 83f 83f
3:50 4.5ft 8s 5s 11 13 mph 1015.5mb 83f 82f
2:50 4.5ft 9s 5s 13 16 mph 1015.7mb 83f 82f
1:50 4.5ft 9s 6s 13 18 mph 1015.6mb 83f 83f
12:50 4.5ft 9s 6s 16 18 mph 1015.5mb 83f 83f
11:50 4.5ft 8s 5s 13 16 mph 1015mb 83f 83f
10:50 5ft 8s 6s 13 16 mph 1014.7mb 83f 82f
9:50 5ft 7s 6s 13 16 mph 1014.4mb 83f 82f
8:50 5ft 8s 6s 13
mph
1014.4mb 83f 82f
7:50 5ft 7s 6s 13
mph
1014.7mb 83f 82f
6:50 4.5ft 7s 6s 11 13 mph 1015.2mb 83f 82f